Terminal Aerodrome Forecast
Issued by NWS Charleston, WV

Current Version | Previous Version | Graphics & Text | Print | Product List | Glossary On
Versions: 1 2 3 4 5 6 7 8 9 10 11 12 13 14 15 16 17 18 19 20 21 22
000
FTUS41 KRLX 252335
TAFPKB
TAF
KPKB 252335Z 2600/2624 VRB02KT P6SM SKC
     FM261600 20008KT P6SM SHRA VCTS BKN050CB
     FM261800 23010G17KT 4SM SHRA VCTS BKN030CB
     FM262200 24009G15KT P6SM SHRA VCTS BKN035CB=

USA.gov is the U.S. government's official web portal to all federal, state and local government web resources and services.